sensor_id;sensor_type;location;lat;lon;timestamp;P1;durP1;ratioP1;P2;durP2;ratioP2
12535;SDS011;6334;48.696;2.114;2022-12-07T00:02:14;21.00;;;12.93;;
12535;SDS011;6334;48.696;2.114;2022-12-07T00:07:44;22.67;;;12.60;;
12535;SDS011;6334;48.696;2.114;2022-12-07T00:10:15;22.57;;;13.10;;
12535;SDS011;6334;48.696;2.114;2022-12-07T00:18:40;21.91;;;12.44;;
12535;SDS011;6334;48.696;2.114;2022-12-07T00:21:17;20.57;;;12.43;;
12535;SDS011;6334;48.696;2.114;2022-12-07T00:23:49;19.25;;;11.48;;
12535;SDS011;6334;48.696;2.114;2022-12-07T00:26:20;18.77;;;10.57;;
12535;SDS011;6334;48.696;2.114;2022-12-07T00:28:53;18.50;;;11.44;;
12535;SDS011;6334;48.696;2.114;2022-12-07T00:31:26;32.55;;;13.55;;
12535;SDS011;6334;48.696;2.114;2022-12-07T00:33:56;27.70;;;15.27;;
12535;SDS011;6334;48.696;2.114;2022-12-07T00:40:27;25.28;;;13.30;;
12535;SDS011;6334;48.696;2.114;2022-12-07T00:42:58;24.47;;;13.16;;
12535;SDS011;6334;48.696;2.114;2022-12-07T00:45:27;23.37;;;12.60;;
12535;SDS011;6334;48.696;2.114;2022-12-07T00:48:03;19.37;;;11.93;;
12535;SDS011;6334;48.696;2.114;2022-12-07T00:50:41;21.22;;;11.80;;
12535;SDS011;6334;48.696;2.114;2022-12-07T00:53:13;19.08;;;11.43;;
12535;SDS011;6334;48.696;2.114;2022-12-07T00:55:46;24.90;;;11.73;;
12535;SDS011;6334;48.696;2.114;2022-12-07T00:58:16;23.30;;;11.83;;
12535;SDS011;6334;48.696;2.114;2022-12-07T01:03:58;20.17;;;10.67;;
12535;SDS011;6334;48.696;2.114;2022-12-07T01:06:34;19.60;;;11.83;;
12535;SDS011;6334;48.696;2.114;2022-12-07T01:09:05;19.70;;;11.17;;
12535;SDS011;6334;48.696;2.114;2022-12-07T01:11:41;20.20;;;11.57;;
12535;SDS011;6334;48.696;2.114;2022-12-07T01:17:54;23.48;;;11.45;;
12535;SDS011;6334;48.696;2.114;2022-12-07T01:20:27;24.52;;;11.40;;
12535;SDS011;6334;48.696;2.114;2022-12-07T01:25:43;19.47;;;11.20;;
12535;SDS011;6334;48.696;2.114;2022-12-07T01:28:27;20.81;;;10.52;;
12535;SDS011;6334;48.696;2.114;2022-12-07T01:31:07;19.60;;;11.70;;
12535;SDS011;6334;48.696;2.114;2022-12-07T01:38:11;19.70;;;10.50;;
12535;SDS011;6334;48.696;2.114;2022-12-07T01:40:43;26.22;;;12.10;;
12535;SDS011;6334;48.696;2.114;2022-12-07T01:43:28;23.12;;;11.96;;
12535;SDS011;6334;48.696;2.114;2022-12-07T01:46:03;18.67;;;11.00;;
12535;SDS011;6334;48.696;2.114;2022-12-07T01:48:40;23.43;;;11.40;;
12535;SDS011;6334;48.696;2.114;2022-12-07T01:51:11;21.80;;;10.75;;
12535;SDS011;6334;48.696;2.114;2022-12-07T01:53:42;18.20;;;10.43;;
12535;SDS011;6334;48.696;2.114;2022-12-07T01:56:14;31.20;;;10.93;;
12535;SDS011;6334;48.696;2.114;2022-12-07T01:58:49;25.30;;;11.35;;
12535;SDS011;6334;48.696;2.114;2022-12-07T02:01:20;22.83;;;10.03;;
12535;SDS011;6334;48.696;2.114;2022-12-07T02:03:57;19.13;;;10.87;;
12535;SDS011;6334;48.696;2.114;2022-12-07T02:06:30;16.17;;;9.84;;
12535;SDS011;6334;48.696;2.114;2022-12-07T02:09:00;25.07;;;10.33;;
12535;SDS011;6334;48.696;2.114;2022-12-07T02:11:34;19.43;;;10.66;;
12535;SDS011;6334;48.696;2.114;2022-12-07T02:14:04;21.90;;;10.87;;
12535;SDS011;6334;48.696;2.114;2022-12-07T02:22:11;17.17;;;9.95;;
12535;SDS011;6334;48.696;2.114;2022-12-07T02:30:17;24.70;;;10.03;;
12535;SDS011;6334;48.696;2.114;2022-12-07T02:33:03;20.70;;;9.50;;
12535;SDS011;6334;48.696;2.114;2022-12-07T02:35:46;17.73;;;9.70;;
12535;SDS011;6334;48.696;2.114;2022-12-07T02:38:31;17.93;;;10.10;;
12535;SDS011;6334;48.696;2.114;2022-12-07T02:41:10;18.63;;;9.90;;
12535;SDS011;6334;48.696;2.114;2022-12-07T02:43:45;18.64;;;9.24;;
12535;SDS011;6334;48.696;2.114;2022-12-07T02:46:18;15.70;;;8.83;;
12535;SDS011;6334;48.696;2.114;2022-12-07T02:49:04;18.02;;;9.71;;
12535;SDS011;6334;48.696;2.114;2022-12-07T02:51:39;17.30;;;9.50;;
12535;SDS011;6334;48.696;2.114;2022-12-07T02:54:13;20.50;;;9.50;;
12535;SDS011;6334;48.696;2.114;2022-12-07T02:56:49;15.97;;;9.03;;
12535;SDS011;6334;48.696;2.114;2022-12-07T03:08:47;17.59;;;8.73;;
12535;SDS011;6334;48.696;2.114;2022-12-07T03:14:13;13.60;;;8.37;;
12535;SDS011;6334;48.696;2.114;2022-12-07T03:17:07;14.70;;;8.43;;
12535;SDS011;6334;48.696;2.114;2022-12-07T03:19:23;14.48;;;7.87;;
12535;SDS011;6334;48.696;2.114;2022-12-07T03:21:54;12.41;;;7.91;;
12535;SDS011;6334;48.696;2.114;2022-12-07T03:24:27;14.53;;;8.50;;
12535;SDS011;6334;48.696;2.114;2022-12-07T03:29:40;14.85;;;8.85;;
12535;SDS011;6334;48.696;2.114;2022-12-07T03:32:23;21.13;;;10.37;;
12535;SDS011;6334;48.696;2.114;2022-12-07T03:35:00;15.63;;;9.33;;
12535;SDS011;6334;48.696;2.114;2022-12-07T03:37:51;16.26;;;9.44;;
12535;SDS011;6334;48.696;2.114;2022-12-07T03:46:37;16.83;;;9.43;;
12535;SDS011;6334;48.696;2.114;2022-12-07T03:49:18;15.76;;;9.62;;
12535;SDS011;6334;48.696;2.114;2022-12-07T03:52:00;13.97;;;8.40;;
12535;SDS011;6334;48.696;2.114;2022-12-07T03:57:22;15.33;;;8.74;;
12535;SDS011;6334;48.696;2.114;2022-12-07T04:02:47;13.68;;;7.84;;
12535;SDS011;6334;48.696;2.114;2022-12-07T04:05:21;13.17;;;7.93;;
12535;SDS011;6334;48.696;2.114;2022-12-07T04:07:51;12.96;;;6.51;;
12535;SDS011;6334;48.696;2.114;2022-12-07T04:10:22;11.40;;;7.67;;
12535;SDS011;6334;48.696;2.114;2022-12-07T04:13:01;12.00;;;7.08;;
12535;SDS011;6334;48.696;2.114;2022-12-07T04:15:33;12.80;;;7.77;;
12535;SDS011;6334;48.696;2.114;2022-12-07T04:18:05;10.88;;;7.09;;
12535;SDS011;6334;48.696;2.114;2022-12-07T04:20:36;13.10;;;7.90;;
12535;SDS011;6334;48.696;2.114;2022-12-07T04:23:09;13.83;;;8.87;;
12535;SDS011;6334;48.696;2.114;2022-12-07T04:25:38;14.20;;;8.10;;
12535;SDS011;6334;48.696;2.114;2022-12-07T04:28:13;13.50;;;7.72;;
12535;SDS011;6334;48.696;2.114;2022-12-07T04:30:45;12.82;;;7.55;;
12535;SDS011;6334;48.696;2.114;2022-12-07T04:33:17;13.60;;;7.87;;
12535;SDS011;6334;48.696;2.114;2022-12-07T04:35:53;14.93;;;8.30;;
12535;SDS011;6334;48.696;2.114;2022-12-07T04:38:24;13.70;;;8.00;;
12535;SDS011;6334;48.696;2.114;2022-12-07T04:44:13;13.48;;;8.06;;
12535;SDS011;6334;48.696;2.114;2022-12-07T04:46:43;15.23;;;8.77;;
12535;SDS011;6334;48.696;2.114;2022-12-07T04:49:27;14.05;;;8.68;;
12535;SDS011;6334;48.696;2.114;2022-12-07T04:51:58;13.48;;;7.82;;
12535;SDS011;6334;48.696;2.114;2022-12-07T04:54:29;16.35;;;7.70;;
12535;SDS011;6334;48.696;2.114;2022-12-07T04:57:00;13.06;;;7.96;;
12535;SDS011;6334;48.696;2.114;2022-12-07T04:59:31;16.20;;;8.00;;
12535;SDS011;6334;48.696;2.114;2022-12-07T05:05:07;11.47;;;6.73;;
12535;SDS011;6334;48.696;2.114;2022-12-07T05:07:37;13.47;;;7.37;;
12535;SDS011;6334;48.696;2.114;2022-12-07T05:10:11;14.30;;;8.55;;
12535;SDS011;6334;48.696;2.114;2022-12-07T05:12:54;14.42;;;8.24;;
12535;SDS011;6334;48.696;2.114;2022-12-07T05:15:28;13.90;;;8.50;;
12535;SDS011;6334;48.696;2.114;2022-12-07T05:18:03;13.20;;;8.57;;
12535;SDS011;6334;48.696;2.114;2022-12-07T05:20:35;14.21;;;8.12;;
12535;SDS011;6334;48.696;2.114;2022-12-07T05:23:25;15.16;;;8.10;;
12535;SDS011;6334;48.696;2.114;2022-12-07T05:25:56;13.60;;;8.38;;
12535;SDS011;6334;48.696;2.114;2022-12-07T05:28:26;14.43;;;8.30;;
12535;SDS011;6334;48.696;2.114;2022-12-07T05:30:56;14.40;;;8.40;;
12535;SDS011;6334;48.696;2.114;2022-12-07T05:33:32;16.73;;;7.97;;
12535;SDS011;6334;48.696;2.114;2022-12-07T05:36:02;13.94;;;7.76;;
12535;SDS011;6334;48.696;2.114;2022-12-07T05:41:37;12.57;;;7.77;;
12535;SDS011;6334;48.696;2.114;2022-12-07T05:44:25;13.00;;;7.53;;
12535;SDS011;6334;48.696;2.114;2022-12-07T05:46:59;13.63;;;7.23;;
12535;SDS011;6334;48.696;2.114;2022-12-07T05:49:29;13.37;;;7.90;;
12535;SDS011;6334;48.696;2.114;2022-12-07T05:52:13;14.07;;;8.47;;
12535;SDS011;6334;48.696;2.114;2022-12-07T05:54:44;13.27;;;7.67;;
12535;SDS011;6334;48.696;2.114;2022-12-07T06:00:56;13.35;;;8.40;;
12535;SDS011;6334;48.696;2.114;2022-12-07T06:12:50;13.73;;;8.13;;
12535;SDS011;6334;48.696;2.114;2022-12-07T06:19:39;12.99;;;7.48;;
12535;SDS011;6334;48.696;2.114;2022-12-07T06:22:09;13.70;;;8.27;;
12535;SDS011;6334;48.696;2.114;2022-12-07T06:30:24;13.73;;;8.30;;
12535;SDS011;6334;48.696;2.114;2022-12-07T06:39:52;12.78;;;7.65;;
12535;SDS011;6334;48.696;2.114;2022-12-07T06:42:24;13.90;;;8.38;;
12535;SDS011;6334;48.696;2.114;2022-12-07T06:44:55;14.75;;;8.80;;
12535;SDS011;6334;48.696;2.114;2022-12-07T06:47:25;18.03;;;11.13;;
12535;SDS011;6334;48.696;2.114;2022-12-07T06:49:55;18.60;;;11.80;;
12535;SDS011;6334;48.696;2.114;2022-12-07T06:52:25;13.77;;;9.10;;
12535;SDS011;6334;48.696;2.114;2022-12-07T06:54:58;13.83;;;8.33;;
12535;SDS011;6334;48.696;2.114;2022-12-07T06:57:27;13.88;;;8.32;;
12535;SDS011;6334;48.696;2.114;2022-12-07T07:00:03;13.17;;;7.86;;
12535;SDS011;6334;48.696;2.114;2022-12-07T07:02:32;12.80;;;8.32;;
12535;SDS011;6334;48.696;2.114;2022-12-07T07:05:03;18.63;;;10.20;;
12535;SDS011;6334;48.696;2.114;2022-12-07T07:07:33;12.13;;;7.37;;
12535;SDS011;6334;48.696;2.114;2022-12-07T07:10:06;14.50;;;9.43;;
12535;SDS011;6334;48.696;2.114;2022-12-07T07:12:41;15.98;;;9.90;;
12535;SDS011;6334;48.696;2.114;2022-12-07T07:15:11;20.35;;;12.77;;
12535;SDS011;6334;48.696;2.114;2022-12-07T07:17:40;21.72;;;14.36;;
12535;SDS011;6334;48.696;2.114;2022-12-07T07:20:10;20.63;;;13.17;;
12535;SDS011;6334;48.696;2.114;2022-12-07T07:22:40;17.67;;;11.90;;
12535;SDS011;6334;48.696;2.114;2022-12-07T07:25:10;21.13;;;13.17;;
12535;SDS011;6334;48.696;2.114;2022-12-07T07:27:52;20.75;;;12.63;;
12535;SDS011;6334;48.696;2.114;2022-12-07T07:30:22;28.93;;;16.53;;
12535;SDS011;6334;48.696;2.114;2022-12-07T07:32:56;36.77;;;18.23;;
12535;SDS011;6334;48.696;2.114;2022-12-07T07:35:33;30.43;;;17.13;;
12535;SDS011;6334;48.696;2.114;2022-12-07T07:38:02;26.30;;;15.63;;
12535;SDS011;6334;48.696;2.114;2022-12-07T07:40:31;20.30;;;13.57;;
12535;SDS011;6334;48.696;2.114;2022-12-07T07:43:01;18.77;;;12.07;;
12535;SDS011;6334;48.696;2.114;2022-12-07T07:45:31;17.27;;;11.13;;
12535;SDS011;6334;48.696;2.114;2022-12-07T07:48:01;20.70;;;13.13;;
12535;SDS011;6334;48.696;2.114;2022-12-07T07:50:31;19.23;;;11.83;;
12535;SDS011;6334;48.696;2.114;2022-12-07T07:53:00;17.90;;;11.10;;
12535;SDS011;6334;48.696;2.114;2022-12-07T07:55:31;17.53;;;10.70;;
12535;SDS011;6334;48.696;2.114;2022-12-07T07:58:01;24.47;;;13.10;;
12535;SDS011;6334;48.696;2.114;2022-12-07T08:00:31;18.03;;;11.43;;
12535;SDS011;6334;48.696;2.114;2022-12-07T08:03:01;22.27;;;12.43;;
12535;SDS011;6334;48.696;2.114;2022-12-07T08:05:32;19.00;;;11.73;;
12535;SDS011;6334;48.696;2.114;2022-12-07T08:08:02;18.20;;;11.63;;
12535;SDS011;6334;48.696;2.114;2022-12-07T08:10:38;17.33;;;10.40;;
12535;SDS011;6334;48.696;2.114;2022-12-07T08:13:08;19.83;;;11.30;;
12535;SDS011;6334;48.696;2.114;2022-12-07T08:15:38;17.33;;;10.77;;
12535;SDS011;6334;48.696;2.114;2022-12-07T08:18:08;23.67;;;14.80;;
12535;SDS011;6334;48.696;2.114;2022-12-07T08:20:39;15.70;;;10.00;;
12535;SDS011;6334;48.696;2.114;2022-12-07T08:23:09;13.30;;;8.97;;
12535;SDS011;6334;48.696;2.114;2022-12-07T08:25:40;15.77;;;8.93;;
12535;SDS011;6334;48.696;2.114;2022-12-07T08:28:10;15.07;;;9.17;;
12535;SDS011;6334;48.696;2.114;2022-12-07T08:30:41;14.27;;;8.73;;
12535;SDS011;6334;48.696;2.114;2022-12-07T08:33:13;15.87;;;8.17;;
12535;SDS011;6334;48.696;2.114;2022-12-07T08:35:43;13.60;;;8.40;;
12535;SDS011;6334;48.696;2.114;2022-12-07T08:38:14;14.30;;;8.70;;
12535;SDS011;6334;48.696;2.114;2022-12-07T08:40:45;15.73;;;9.47;;
12535;SDS011;6334;48.696;2.114;2022-12-07T08:43:16;14.53;;;8.80;;
12535;SDS011;6334;48.696;2.114;2022-12-07T08:45:47;15.80;;;9.40;;
12535;SDS011;6334;48.696;2.114;2022-12-07T08:48:17;14.73;;;8.80;;
12535;SDS011;6334;48.696;2.114;2022-12-07T08:50:48;17.03;;;9.73;;
12535;SDS011;6334;48.696;2.114;2022-12-07T08:53:19;14.80;;;9.23;;
12535;SDS011;6334;48.696;2.114;2022-12-07T08:55:49;15.13;;;9.33;;
12535;SDS011;6334;48.696;2.114;2022-12-07T08:58:20;13.77;;;9.00;;
12535;SDS011;6334;48.696;2.114;2022-12-07T09:00:50;16.67;;;9.17;;
12535;SDS011;6334;48.696;2.114;2022-12-07T09:03:21;15.10;;;8.40;;
12535;SDS011;6334;48.696;2.114;2022-12-07T09:05:52;14.77;;;9.23;;
12535;SDS011;6334;48.696;2.114;2022-12-07T09:08:22;16.33;;;10.70;;
12535;SDS011;6334;48.696;2.114;2022-12-07T09:10:52;17.60;;;11.57;;
12535;SDS011;6334;48.696;2.114;2022-12-07T09:13:23;17.43;;;10.53;;
12535;SDS011;6334;48.696;2.114;2022-12-07T09:15:53;14.93;;;9.90;;
12535;SDS011;6334;48.696;2.114;2022-12-07T09:18:24;16.13;;;9.40;;
12535;SDS011;6334;48.696;2.114;2022-12-07T09:20:55;16.43;;;10.07;;
12535;SDS011;6334;48.696;2.114;2022-12-07T09:23:25;15.87;;;10.03;;
12535;SDS011;6334;48.696;2.114;2022-12-07T09:25:58;17.17;;;10.03;;
12535;SDS011;6334;48.696;2.114;2022-12-07T09:28:27;17.03;;;10.23;;
12535;SDS011;6334;48.696;2.114;2022-12-07T09:30:57;15.20;;;10.10;;
12535;SDS011;6334;48.696;2.114;2022-12-07T09:33:28;15.80;;;10.33;;
12535;SDS011;6334;48.696;2.114;2022-12-07T09:36:01;15.97;;;9.93;;
12535;SDS011;6334;48.696;2.114;2022-12-07T09:38:31;15.83;;;10.10;;
12535;SDS011;6334;48.696;2.114;2022-12-07T09:41:05;15.43;;;9.83;;
12535;SDS011;6334;48.696;2.114;2022-12-07T09:43:37;14.33;;;9.43;;
12535;SDS011;6334;48.696;2.114;2022-12-07T09:46:08;15.90;;;9.80;;
12535;SDS011;6334;48.696;2.114;2022-12-07T09:48:38;16.30;;;10.33;;
12535;SDS011;6334;48.696;2.114;2022-12-07T09:51:19;15.40;;;9.43;;
12535;SDS011;6334;48.696;2.114;2022-12-07T09:53:39;14.30;;;9.63;;
12535;SDS011;6334;48.696;2.114;2022-12-07T09:56:11;16.00;;;9.77;;
12535;SDS011;6334;48.696;2.114;2022-12-07T09:58:39;14.13;;;9.67;;
12535;SDS011;6334;48.696;2.114;2022-12-07T10:01:16;17.07;;;10.47;;
12535;SDS011;6334;48.696;2.114;2022-12-07T10:03:52;16.17;;;10.13;;
12535;SDS011;6334;48.696;2.114;2022-12-07T10:06:18;17.47;;;11.00;;
12535;SDS011;6334;48.696;2.114;2022-12-07T10:08:49;16.83;;;10.37;;
12535;SDS011;6334;48.696;2.114;2022-12-07T10:11:19;16.23;;;9.33;;
12535;SDS011;6334;48.696;2.114;2022-12-07T10:13:52;15.87;;;9.83;;
12535;SDS011;6334;48.696;2.114;2022-12-07T10:16:35;14.90;;;9.60;;
12535;SDS011;6334;48.696;2.114;2022-12-07T10:22:05;15.20;;;9.93;;
12535;SDS011;6334;48.696;2.114;2022-12-07T10:24:33;14.80;;;9.87;;
12535;SDS011;6334;48.696;2.114;2022-12-07T10:27:03;16.63;;;10.17;;
12535;SDS011;6334;48.696;2.114;2022-12-07T10:29:37;17.26;;;10.70;;
12535;SDS011;6334;48.696;2.114;2022-12-07T10:35:15;14.37;;;8.93;;
12535;SDS011;6334;48.696;2.114;2022-12-07T10:37:28;16.77;;;9.00;;
12535;SDS011;6334;48.696;2.114;2022-12-07T10:39:58;15.67;;;9.43;;
12535;SDS011;6334;48.696;2.114;2022-12-07T10:42:30;15.30;;;9.63;;
12535;SDS011;6334;48.696;2.114;2022-12-07T10:45:12;17.37;;;9.80;;
12535;SDS011;6334;48.696;2.114;2022-12-07T10:47:55;14.07;;;8.63;;
12535;SDS011;6334;48.696;2.114;2022-12-07T10:53:51;16.13;;;9.67;;
12535;SDS011;6334;48.696;2.114;2022-12-07T10:59:21;13.47;;;9.17;;
12535;SDS011;6334;48.696;2.114;2022-12-07T11:09:57;13.57;;;8.73;;
12535;SDS011;6334;48.696;2.114;2022-12-07T11:15:33;13.67;;;8.80;;
12535;SDS011;6334;48.696;2.114;2022-12-07T11:18:21;13.20;;;8.63;;
12535;SDS011;6334;48.696;2.114;2022-12-07T11:21:04;14.32;;;8.77;;
12535;SDS011;6334;48.696;2.114;2022-12-07T11:32:03;13.30;;;7.60;;
12535;SDS011;6334;48.696;2.114;2022-12-07T11:34:51;13.00;;;8.40;;
12535;SDS011;6334;48.696;2.114;2022-12-07T11:37:23;17.02;;;9.36;;
12535;SDS011;6334;48.696;2.114;2022-12-07T11:40:05;15.13;;;9.00;;
12535;SDS011;6334;48.696;2.114;2022-12-07T11:42:28;13.80;;;7.13;;
12535;SDS011;6334;48.696;2.114;2022-12-07T11:45:10;10.77;;;5.93;;
12535;SDS011;6334;48.696;2.114;2022-12-07T11:47:38;9.80;;;5.37;;
12535;SDS011;6334;48.696;2.114;2022-12-07T11:53:19;9.60;;;5.43;;
12535;SDS011;6334;48.696;2.114;2022-12-07T11:56:01;11.88;;;5.70;;
12535;SDS011;6334;48.696;2.114;2022-12-07T12:02:19;10.16;;;5.31;;
12535;SDS011;6334;48.696;2.114;2022-12-07T12:07:40;9.70;;;5.30;;
12535;SDS011;6334;48.696;2.114;2022-12-07T12:10:15;8.72;;;5.24;;
12535;SDS011;6334;48.696;2.114;2022-12-07T12:13:11;9.95;;;5.30;;
12535;SDS011;6334;48.696;2.114;2022-12-07T12:21:33;10.50;;;4.23;;
12535;SDS011;6334;48.696;2.114;2022-12-07T12:24:04;11.23;;;5.20;;
12535;SDS011;6334;48.696;2.114;2022-12-07T12:26:33;8.27;;;4.90;;
12535;SDS011;6334;48.696;2.114;2022-12-07T12:29:05;11.15;;;4.80;;
12535;SDS011;6334;48.696;2.114;2022-12-07T12:32:03;9.23;;;4.73;;
12535;SDS011;6334;48.696;2.114;2022-12-07T12:42:57;7.85;;;4.55;;
12535;SDS011;6334;48.696;2.114;2022-12-07T12:45:28;9.07;;;5.05;;
12535;SDS011;6334;48.696;2.114;2022-12-07T12:51:40;13.32;;;5.30;;
12535;SDS011;6334;48.696;2.114;2022-12-07T12:53:35;11.77;;;5.17;;
12535;SDS011;6334;48.696;2.114;2022-12-07T12:59:18;9.40;;;4.93;;
12535;SDS011;6334;48.696;2.114;2022-12-07T13:01:39;9.00;;;4.83;;
12535;SDS011;6334;48.696;2.114;2022-12-07T13:04:17;11.48;;;5.54;;
12535;SDS011;6334;48.696;2.114;2022-12-07T13:06:46;9.57;;;5.07;;
12535;SDS011;6334;48.696;2.114;2022-12-07T13:09:38;7.70;;;4.92;;
12535;SDS011;6334;48.696;2.114;2022-12-07T13:11:46;9.50;;;5.00;;
12535;SDS011;6334;48.696;2.114;2022-12-07T13:17:12;8.99;;;5.51;;
12535;SDS011;6334;48.696;2.114;2022-12-07T13:27:40;9.90;;;5.40;;
12535;SDS011;6334;48.696;2.114;2022-12-07T13:30:14;8.93;;;5.33;;
12535;SDS011;6334;48.696;2.114;2022-12-07T13:32:55;13.33;;;5.63;;
12535;SDS011;6334;48.696;2.114;2022-12-07T13:35:28;12.27;;;5.97;;
12535;SDS011;6334;48.696;2.114;2022-12-07T13:37:59;10.63;;;5.87;;
12535;SDS011;6334;48.696;2.114;2022-12-07T13:40:28;10.87;;;5.70;;
12535;SDS011;6334;48.696;2.114;2022-12-07T13:43:02;11.53;;;5.97;;
12535;SDS011;6334;48.696;2.114;2022-12-07T13:45:32;11.30;;;6.23;;
12535;SDS011;6334;48.696;2.114;2022-12-07T13:50:55;12.02;;;6.97;;
12535;SDS011;6334;48.696;2.114;2022-12-07T13:53:24;11.80;;;6.13;;
12535;SDS011;6334;48.696;2.114;2022-12-07T13:55:59;13.10;;;7.20;;
12535;SDS011;6334;48.696;2.114;2022-12-07T13:58:30;13.23;;;7.60;;
12535;SDS011;6334;48.696;2.114;2022-12-07T14:00:59;13.87;;;8.10;;
12535;SDS011;6334;48.696;2.114;2022-12-07T14:03:30;12.70;;;7.50;;
12535;SDS011;6334;48.696;2.114;2022-12-07T14:06:03;13.65;;;7.43;;
12535;SDS011;6334;48.696;2.114;2022-12-07T14:08:34;14.43;;;7.97;;
12535;SDS011;6334;48.696;2.114;2022-12-07T14:11:05;11.30;;;7.57;;
12535;SDS011;6334;48.696;2.114;2022-12-07T14:13:35;14.47;;;9.10;;
12535;SDS011;6334;48.696;2.114;2022-12-07T14:18:56;13.27;;;7.83;;
12535;SDS011;6334;48.696;2.114;2022-12-07T14:21:28;16.20;;;8.70;;
12535;SDS011;6334;48.696;2.114;2022-12-07T14:24:10;14.00;;;8.20;;
12535;SDS011;6334;48.696;2.114;2022-12-07T14:26:39;12.80;;;7.73;;
12535;SDS011;6334;48.696;2.114;2022-12-07T14:29:32;12.55;;;7.88;;
12535;SDS011;6334;48.696;2.114;2022-12-07T14:34:37;13.98;;;8.52;;
12535;SDS011;6334;48.696;2.114;2022-12-07T14:37:08;13.30;;;8.43;;
12535;SDS011;6334;48.696;2.114;2022-12-07T14:39:39;14.05;;;8.73;;
12535;SDS011;6334;48.696;2.114;2022-12-07T14:44:45;13.90;;;8.77;;
12535;SDS011;6334;48.696;2.114;2022-12-07T14:47:15;14.17;;;9.00;;
12535;SDS011;6334;48.696;2.114;2022-12-07T14:49:46;14.43;;;8.53;;
12535;SDS011;6334;48.696;2.114;2022-12-07T14:52:27;15.00;;;10.20;;
12535;SDS011;6334;48.696;2.114;2022-12-07T14:54:54;14.00;;;9.20;;
12535;SDS011;6334;48.696;2.114;2022-12-07T14:57:24;15.23;;;10.03;;
12535;SDS011;6334;48.696;2.114;2022-12-07T14:59:54;15.37;;;9.83;;
12535;SDS011;6334;48.696;2.114;2022-12-07T15:02:24;16.47;;;10.33;;
12535;SDS011;6334;48.696;2.114;2022-12-07T15:04:57;18.70;;;11.83;;
12535;SDS011;6334;48.696;2.114;2022-12-07T15:07:29;15.74;;;9.55;;
12535;SDS011;6334;48.696;2.114;2022-12-07T15:09:59;18.26;;;12.23;;
12535;SDS011;6334;48.696;2.114;2022-12-07T15:12:29;19.05;;;12.18;;
12535;SDS011;6334;48.696;2.114;2022-12-07T15:18:29;16.00;;;10.60;;
12535;SDS011;6334;48.696;2.114;2022-12-07T15:21:00;17.00;;;10.63;;
12535;SDS011;6334;48.696;2.114;2022-12-07T15:23:30;20.60;;;10.63;;
12535;SDS011;6334;48.696;2.114;2022-12-07T15:26:00;16.05;;;10.00;;
12535;SDS011;6334;48.696;2.114;2022-12-07T15:28:34;15.66;;;9.63;;
12535;SDS011;6334;48.696;2.114;2022-12-07T15:33:55;14.77;;;8.47;;
12535;SDS011;6334;48.696;2.114;2022-12-07T15:36:27;14.77;;;9.17;;
12535;SDS011;6334;48.696;2.114;2022-12-07T15:38:55;13.40;;;8.97;;
12535;SDS011;6334;48.696;2.114;2022-12-07T15:41:25;14.47;;;9.13;;
12535;SDS011;6334;48.696;2.114;2022-12-07T15:43:56;15.03;;;8.27;;
12535;SDS011;6334;48.696;2.114;2022-12-07T15:46:44;15.37;;;8.40;;
12535;SDS011;6334;48.696;2.114;2022-12-07T15:49:16;17.83;;;9.53;;
12535;SDS011;6334;48.696;2.114;2022-12-07T15:51:44;14.30;;;9.00;;
12535;SDS011;6334;48.696;2.114;2022-12-07T15:54:18;16.50;;;11.10;;
12535;SDS011;6334;48.696;2.114;2022-12-07T15:56:46;17.03;;;10.40;;
12535;SDS011;6334;48.696;2.114;2022-12-07T15:59:16;15.60;;;9.95;;
12535;SDS011;6334;48.696;2.114;2022-12-07T16:01:46;16.60;;;10.15;;
12535;SDS011;6334;48.696;2.114;2022-12-07T16:04:16;16.10;;;9.43;;
12535;SDS011;6334;48.696;2.114;2022-12-07T16:06:46;15.60;;;9.50;;
12535;SDS011;6334;48.696;2.114;2022-12-07T16:09:17;16.50;;;9.17;;
12535;SDS011;6334;48.696;2.114;2022-12-07T16:11:47;17.83;;;9.43;;
12535;SDS011;6334;48.696;2.114;2022-12-07T16:14:20;15.17;;;8.60;;
12535;SDS011;6334;48.696;2.114;2022-12-07T16:16:49;14.73;;;8.97;;
12535;SDS011;6334;48.696;2.114;2022-12-07T16:19:36;17.47;;;9.67;;
12535;SDS011;6334;48.696;2.114;2022-12-07T16:22:01;17.90;;;10.07;;
12535;SDS011;6334;48.696;2.114;2022-12-07T16:24:31;16.87;;;10.17;;
12535;SDS011;6334;48.696;2.114;2022-12-07T16:27:00;18.63;;;10.60;;
12535;SDS011;6334;48.696;2.114;2022-12-07T16:29:31;16.97;;;10.87;;
12535;SDS011;6334;48.696;2.114;2022-12-07T16:32:01;16.60;;;10.43;;
12535;SDS011;6334;48.696;2.114;2022-12-07T16:34:32;17.70;;;10.73;;
12535;SDS011;6334;48.696;2.114;2022-12-07T16:37:02;17.87;;;10.00;;
12535;SDS011;6334;48.696;2.114;2022-12-07T16:39:33;16.90;;;11.33;;
12535;SDS011;6334;48.696;2.114;2022-12-07T16:42:03;20.87;;;11.60;;
12535;SDS011;6334;48.696;2.114;2022-12-07T16:44:33;17.28;;;10.94;;
12535;SDS011;6334;48.696;2.114;2022-12-07T16:47:03;19.33;;;11.30;;
12535;SDS011;6334;48.696;2.114;2022-12-07T16:49:33;16.57;;;11.33;;
12535;SDS011;6334;48.696;2.114;2022-12-07T16:52:04;18.83;;;11.73;;
12535;SDS011;6334;48.696;2.114;2022-12-07T16:54:34;17.93;;;12.10;;
12535;SDS011;6334;48.696;2.114;2022-12-07T16:57:04;18.75;;;12.20;;
12535;SDS011;6334;48.696;2.114;2022-12-07T16:59:33;17.10;;;11.27;;
12535;SDS011;6334;48.696;2.114;2022-12-07T17:02:08;18.56;;;11.51;;
12535;SDS011;6334;48.696;2.114;2022-12-07T17:04:36;20.90;;;11.60;;
12535;SDS011;6334;48.696;2.114;2022-12-07T17:07:09;17.13;;;9.90;;
12535;SDS011;6334;48.696;2.114;2022-12-07T17:09:38;18.07;;;10.43;;
12535;SDS011;6334;48.696;2.114;2022-12-07T17:12:08;15.73;;;9.97;;
12535;SDS011;6334;48.696;2.114;2022-12-07T17:14:38;16.23;;;10.13;;
12535;SDS011;6334;48.696;2.114;2022-12-07T17:17:26;15.03;;;9.53;;
12535;SDS011;6334;48.696;2.114;2022-12-07T17:19:56;16.33;;;9.33;;
12535;SDS011;6334;48.696;2.114;2022-12-07T17:22:25;16.20;;;8.97;;
12535;SDS011;6334;48.696;2.114;2022-12-07T17:24:55;17.37;;;9.23;;
12535;SDS011;6334;48.696;2.114;2022-12-07T17:27:34;15.67;;;9.50;;
12535;SDS011;6334;48.696;2.114;2022-12-07T17:30:04;16.03;;;9.63;;
12535;SDS011;6334;48.696;2.114;2022-12-07T17:32:33;16.87;;;9.37;;
12535;SDS011;6334;48.696;2.114;2022-12-07T17:35:03;14.83;;;9.13;;
12535;SDS011;6334;48.696;2.114;2022-12-07T17:37:32;18.50;;;10.87;;
12535;SDS011;6334;48.696;2.114;2022-12-07T17:40:04;17.57;;;11.57;;
12535;SDS011;6334;48.696;2.114;2022-12-07T17:42:33;17.67;;;11.17;;
12535;SDS011;6334;48.696;2.114;2022-12-07T17:45:03;17.50;;;11.40;;
12535;SDS011;6334;48.696;2.114;2022-12-07T17:47:33;15.10;;;10.10;;
12535;SDS011;6334;48.696;2.114;2022-12-07T17:50:04;15.50;;;9.90;;
12535;SDS011;6334;48.696;2.114;2022-12-07T17:52:33;15.27;;;9.80;;
12535;SDS011;6334;48.696;2.114;2022-12-07T17:55:08;19.83;;;10.27;;
12535;SDS011;6334;48.696;2.114;2022-12-07T17:57:37;20.00;;;12.47;;
12535;SDS011;6334;48.696;2.114;2022-12-07T18:00:10;16.07;;;10.30;;
12535;SDS011;6334;48.696;2.114;2022-12-07T18:02:41;18.20;;;10.57;;
12535;SDS011;6334;48.696;2.114;2022-12-07T18:05:11;16.03;;;10.30;;
12535;SDS011;6334;48.696;2.114;2022-12-07T18:07:42;16.70;;;9.57;;
12535;SDS011;6334;48.696;2.114;2022-12-07T18:10:15;18.20;;;9.70;;
12535;SDS011;6334;48.696;2.114;2022-12-07T18:15:20;19.23;;;10.48;;
12535;SDS011;6334;48.696;2.114;2022-12-07T18:17:52;15.77;;;9.75;;
12535;SDS011;6334;48.696;2.114;2022-12-07T18:20:34;13.89;;;9.00;;
12535;SDS011;6334;48.696;2.114;2022-12-07T18:26:09;17.17;;;10.83;;
12535;SDS011;6334;48.696;2.114;2022-12-07T18:28:43;18.46;;;10.80;;
12535;SDS011;6334;48.696;2.114;2022-12-07T18:31:14;16.83;;;10.20;;
12535;SDS011;6334;48.696;2.114;2022-12-07T18:33:46;16.03;;;9.93;;
12535;SDS011;6334;48.696;2.114;2022-12-07T18:36:18;19.43;;;10.93;;